Time;durP1;ratioP1;P1;durP2;ratioP2;P2;SDS_P1;SDS_P2;PMS_P1;PMS_P2;Temp;Humidity;BMP_temperature;BMP_pressure;BME280_temperature;BME280_humidity;BME280_pressure;Samples;Min_cycle;Max_cycle;Signal;HPM_P1;HPM_P2
2023/08/06 00:02:01;;;;;;;14.18;10.32;;;;;;;21.72;74.44;97849.59;4486355;31;34302;-90
2023/08/06 00:04:28;;;;;;;17.70;11.38;;;;;;;22.02;73.34;97852.37;4486796;31;34856;-90
2023/08/06 00:06:57;;;;;;;12.88;10.70;;;;;;;21.93;73.59;97844.09;4491283;31;34136;-87
2023/08/06 00:09:24;;;;;;;16.05;12.23;;;;;;;22.29;71.93;97828.91;4497456;31;33629;-89
2023/08/06 00:11:52;;;;;;;15.45;11.20;;;;;;;21.43;75.80;97826.56;4497834;31;33419;-90
2023/08/06 00:14:20;;;;;;;17.08;12.82;;;;;;;21.51;76.12;97825.22;4497712;31;34851;-89
2023/08/06 00:16:48;;;;;;;20.25;13.38;;;;;;;21.51;75.53;97821.72;4488699;31;33704;-88
2023/08/06 00:19:15;;;;;;;16.55;13.05;;;;;;;21.57;76.03;97830.16;4481901;32;35178;-90
2023/08/06 00:21:43;;;;;;;16.60;12.57;;;;;;;21.63;75.48;97834.28;4491680;31;33411;-89
2023/08/06 00:24:11;;;;;;;16.45;13.40;;;;;;;21.62;76.10;97835.19;4497594;31;33738;-90
2023/08/06 00:26:38;;;;;;;19.25;13.95;;;;;;;21.43;77.37;97848.50;4489908;31;35050;-88
2023/08/06 00:29:06;;;;;;;19.27;13.90;;;;;;;21.41;77.37;97850.38;4482454;31;33947;-89
2023/08/06 00:31:33;;;;;;;17.90;14.15;;;;;;;21.56;76.77;97840.81;4481586;32;34137;-91
2023/08/06 00:34:02;;;;;;;17.48;13.52;;;;;;;21.45;77.03;97840.53;4481840;32;34056;-88
2023/08/06 00:36:29;;;;;;;20.17;14.48;;;;;;;21.46;77.39;97842.22;4487088;31;34864;-89
2023/08/06 00:38:57;;;;;;;23.75;15.48;;;;;;;21.26;77.94;97841.44;4496135;31;34684;-90
2023/08/06 00:41:25;;;;;;;16.92;13.32;;;;;;;21.55;75.97;97836.44;4496092;31;33362;-88
2023/08/06 00:43:52;;;;;;;19.73;14.07;;;;;;;21.36;76.80;97826.03;4489491;31;34724;-90
2023/08/06 00:46:20;;;;;;;17.95;13.48;;;;;;;21.34;77.13;97825.25;4498069;31;33596;-90
2023/08/06 00:48:48;;;;;;;18.58;14.60;;;;;;;21.42;76.60;97816.94;4493374;31;34777;-90
2023/08/06 00:51:16;;;;;;;17.95;14.30;;;;;;;21.45;76.76;97814.16;4499619;31;33462;-89
2023/08/06 00:53:43;;;;;;;21.27;14.18;;;;;;;21.23;77.33;97811.75;4477745;31;33689;-90
2023/08/06 00:56:11;;;;;;;18.65;13.20;;;;;;;21.47;76.42;97807.00;4466885;32;34278;-90
2023/08/06 00:58:39;;;;;;;18.90;13.20;;;;;;;21.52;75.73;97805.84;4482821;31;33757;-89
2023/08/06 01:01:07;;;;;;;17.60;13.10;;;;;;;21.14;77.69;97805.19;4483720;32;34339;-90
2023/08/06 01:03:35;;;;;;;18.75;12.25;;;;;;;21.47;76.51;97796.44;4492691;31;33842;-90
2023/08/06 01:06:02;;;;;;;16.08;11.32;;;;;;;21.50;76.06;97791.03;4498825;31;34084;-89
2023/08/06 01:08:48;;;;;;;16.17;11.48;;;;;;;21.32;76.67;97783.13;4496761;31;33812;-89
2023/08/06 01:11:15;;;;;;;;;;;;;;;21.40;76.79;97779.25;4499806;31;33792;-90
2023/08/06 01:13:49;;;;;;;12.30;9.18;;;;;;;21.76;74.55;97761.44;4487810;31;34141;-89
2023/08/06 01:16:18;;;;;;;15.85;9.52;;;;;;;21.34;75.37;97762.84;4483639;32;34287;-88
2023/08/06 01:18:49;;;;;;;15.20;9.65;;;;;;;21.34;74.64;97760.22;4482248;32;34453;-88
2023/08/06 01:21:17;;;;;;;12.00;9.35;;;;;;;21.17;75.77;97757.56;4484424;31;33275;-90
2023/08/06 01:23:45;;;;;;;13.27;8.70;;;;;;;21.40;75.04;97752.87;4491210;31;34703;-90
2023/08/06 01:26:23;;;;;;;11.73;9.15;;;;;;;21.29;74.71;97750.78;4499341;31;34368;-88
2023/08/06 01:28:56;;;;;;;15.35;9.60;;;;;;;21.18;75.44;97761.94;4495436;31;33971;-88
2023/08/06 01:31:32;;;;;;;12.73;9.60;;;;;;;21.19;75.41;97768.87;4482500;31;32808;-89
2023/08/06 01:34:01;;;;;;;13.73;8.88;;;;;;;21.23;75.30;97761.69;4487543;31;33684;-90
2023/08/06 01:36:28;;;;;;;12.63;9.05;;;;;;;21.28;74.96;97764.91;4483428;32;33810;-92
2023/08/06 01:38:57;;;;;;;13.95;8.75;;;;;;;21.19;75.21;97762.78;4483530;32;33819;-90
2023/08/06 01:41:24;;;;;;;14.73;8.88;;;;;;;21.16;75.27;97762.94;4482298;32;33230;-89
2023/08/06 01:43:52;;;;;;;11.12;8.30;;;;;;;21.02;75.63;97768.91;4493304;31;34043;-90
2023/08/06 01:46:19;;;;;;;11.75;8.85;;;;;;;21.45;74.11;97761.44;4497833;31;34266;-91
2023/08/06 01:48:47;;;;;;;14.65;7.87;;;;;;;21.32;74.15;97759.38;4497572;31;33876;-90
2023/08/06 01:51:15;;;;;;;11.80;8.95;;;;;;;21.43;73.96;97758.00;4498810;31;34062;-89
2023/08/06 01:53:42;;;;;;;11.70;8.48;;;;;;;21.46;73.87;97755.22;4490586;31;34698;-91
2023/08/06 01:56:10;;;;;;;10.45;7.97;;;;;;;21.22;74.68;97744.16;4483391;32;35060;-90
2023/08/06 01:58:37;;;;;;;11.00;7.03;;;;;;;21.09;75.22;97741.31;4483321;32;33827;-90
2023/08/06 02:01:05;;;;;;;14.38;7.68;;;;;;;21.25;74.60;97739.59;4483314;32;33471;-89
2023/08/06 02:03:33;;;;;;;11.30;7.12;;;;;;;21.03;75.12;97725.84;4491247;31;33973;-89
2023/08/06 02:06:00;;;;;;;11.48;7.15;;;;;;;20.95;75.54;97720.09;4499140;31;34900;-90
2023/08/06 02:08:27;;;;;;;12.00;7.35;;;;;;;21.09;74.33;97713.16;4499327;31;33740;-90
2023/08/06 02:10:55;;;;;;;10.05;7.43;;;;;;;21.47;72.72;97712.09;4499123;31;33446;-90
2023/08/06 02:13:23;;;;;;;11.00;7.80;;;;;;;21.16;74.14;97702.31;4492267;31;33786;-89
2023/08/06 02:15:50;;;;;;;11.57;7.07;;;;;;;21.23;73.85;97691.34;4496247;31;33934;-89
2023/08/06 02:18:18;;;;;;;10.93;7.22;;;;;;;21.13;74.98;97682.22;4496030;31;34515;-90
2023/08/06 02:20:56;;;;;;;10.23;7.03;;;;;;;21.13;75.25;97690.13;4496988;31;33364;-91
2023/08/06 02:23:24;;;;;;;10.20;7.15;;;;;;;21.28;74.70;97681.41;4475052;31;34512;-90
2023/08/06 02:26:02;;;;;;;8.93;6.47;;;;;;;21.36;74.30;97689.78;4476822;31;34860;-90
2023/08/06 02:28:30;;;;;;;9.88;7.18;;;;;;;21.40;74.19;97684.34;4486790;31;33652;-88
2023/08/06 02:30:58;;;;;;;12.20;7.97;;;;;;;20.86;76.15;97685.41;4497600;31;33066;-89
2023/08/06 02:33:26;;;;;;;12.52;7.80;;;;;;;21.09;75.01;97686.81;4497381;31;33625;-89
2023/08/06 02:36:03;;;;;;;10.20;7.57;;;;;;;20.77;76.50;97680.62;4497567;31;35077;-89
2023/08/06 02:38:31;;;;;;;10.93;6.30;;;;;;;21.05;75.42;97680.00;4498901;31;33920;-89
2023/08/06 02:41:02;;;;;;;10.55;6.60;;;;;;;21.23;74.35;97677.34;4495152;31;33354;-90
2023/08/06 02:43:30;;;;;;;9.13;6.45;;;;;;;21.36;73.89;97676.59;4492535;31;33978;-91
2023/08/06 02:45:59;;;;;;;13.40;6.85;;;;;;;21.46;72.73;97671.69;4498654;31;34912;-91
2023/08/06 02:48:27;;;;;;;8.45;6.15;;;;;;;21.47;72.51;97659.34;4498638;31;33373;-90
2023/08/06 02:50:59;;;;;;;8.00;5.85;;;;;;;21.38;72.97;97658.91;4493111;31;32955;-91
2023/08/06 02:53:27;;;;;;;9.40;5.75;;;;;;;21.38;72.65;97653.66;4483851;31;33818;-90
2023/08/06 02:55:55;;;;;;;8.57;5.90;;;;;;;21.26;72.78;97662.22;4482965;32;34116;-90
2023/08/06 02:58:23;;;;;;;8.52;5.25;;;;;;;21.38;72.40;97673.91;4481848;32;33788;-90
2023/08/06 03:01:00;;;;;;;9.25;5.50;;;;;;;21.33;72.38;97674.16;4488138;31;31811;-90
2023/08/06 03:03:27;;;;;;;8.95;5.70;;;;;;;21.27;72.62;97668.31;4498269;31;33985;-90
2023/08/06 03:05:56;;;;;;;9.57;6.15;;;;;;;21.09;73.17;97668.37;4498974;31;34797;-89
2023/08/06 03:08:24;;;;;;;9.70;6.43;;;;;;;20.98;73.71;97678.63;4497416;31;34546;-90
2023/08/06 03:10:52;;;;;;;9.75;5.70;;;;;;;20.55;75.66;97678.25;4487418;31;33043;-89
2023/08/06 03:13:20;;;;;;;9.80;6.05;;;;;;;21.06;73.46;97680.84;4467435;32;34362;-90
2023/08/06 03:15:56;;;;;;;8.73;6.05;;;;;;;20.95;73.70;97673.56;4467377;32;33787;-89
2023/08/06 03:18:25;;;;;;;8.98;6.28;;;;;;;21.15;73.12;97664.56;4465841;32;34747;-89
2023/08/06 03:20:54;;;;;;;11.12;7.72;;;;;;;21.08;72.98;97661.41;4475468;31;33273;-90
2023/08/06 03:23:21;;;;;;;9.73;6.60;;;;;;;20.78;74.18;97661.25;4494685;31;33877;-90
2023/08/06 03:25:49;;;;;;;10.65;7.03;;;;;;;21.34;72.00;97670.56;4498373;31;34255;-89
2023/08/06 03:28:17;;;;;;;9.77;7.40;;;;;;;21.10;73.03;97671.84;4497155;31;34620;-89
2023/08/06 03:30:46;;;;;;;13.48;8.15;;;;;;;20.73;74.43;97673.81;4494654;31;33690;-88
2023/08/06 03:33:14;;;;;;;11.57;7.40;;;;;;;20.46;75.73;97667.31;4482904;32;34851;-90
2023/08/06 03:35:41;;;;;;;9.45;7.03;;;;;;;20.80;74.05;97663.81;4481363;32;33942;-90
2023/08/06 03:38:09;;;;;;;12.30;7.70;;;;;;;20.71;74.51;97667.75;4483652;31;33788;-89
2023/08/06 03:40:36;;;;;;;12.30;7.22;;;;;;;20.67;74.48;97658.31;4493902;31;33247;-89
2023/08/06 03:43:04;;;;;;;10.88;7.03;;;;;;;20.67;74.23;97671.50;4482629;32;33919;-89
2023/08/06 03:45:31;;;;;;;10.07;7.53;;;;;;;20.75;73.93;97671.94;4482701;32;33870;-88
2023/08/06 03:47:59;;;;;;;10.45;7.70;;;;;;;20.67;74.29;97668.84;4482598;32;33654;-93
2023/08/06 03:50:27;;;;;;;9.93;7.20;;;;;;;20.48;75.61;97673.34;4484364;31;34433;-90
2023/08/06 03:52:55;;;;;;;11.12;7.18;;;;;;;20.68;74.40;97667.06;4498392;31;33624;-87
2023/08/06 03:55:22;;;;;;;14.60;7.05;;;;;;;20.75;74.35;97674.56;4496687;31;35075;-87
2023/08/06 03:57:50;;;;;;;11.70;8.70;;;;;;;20.81;73.88;97679.53;4498017;31;34421;-89
2023/08/06 04:00:17;;;;;;;13.07;8.13;;;;;;;20.64;74.57;97669.84;4496309;31;33055;-89
2023/08/06 04:02:49;;;;;;;13.80;8.50;;;;;;;20.79;73.92;97659.47;4482478;32;33739;-89
2023/08/06 04:05:17;;;;;;;13.95;8.95;;;;;;;20.34;75.91;97667.00;4482182;32;34368;-91
2023/08/06 04:07:44;;;;;;;12.15;8.50;;;;;;;20.52;75.17;97665.22;4482980;31;34025;-92
2023/08/06 04:10:12;;;;;;;13.52;8.35;;;;;;;20.50;75.23;97656.59;4481823;32;33369;-90
2023/08/06 04:12:39;;;;;;;11.50;8.02;;;;;;;20.46;75.28;97667.31;4496217;31;33830;-93
2023/08/06 04:15:07;;;;;;;13.93;8.00;;;;;;;20.68;74.33;97656.53;4499273;31;34198;-90
2023/08/06 04:17:35;;;;;;;14.87;8.18;;;;;;;20.77;74.01;97656.06;4499783;31;34593;-91
2023/08/06 04:20:03;;;;;;;11.30;7.47;;;;;;;20.56;74.93;97653.59;4500119;31;33431;-90
2023/08/06 04:22:30;;;;;;;9.82;6.25;;;;;;;20.46;75.42;97659.41;4487481;31;33964;-90
2023/08/06 04:24:58;;;;;;;8.10;5.45;;;;;;;20.45;75.48;97655.91;4483799;32;34954;-88
2023/08/06 04:27:25;;;;;;;6.55;4.07;;;;;;;20.51;74.90;97657.44;4484040;32;33731;-90
2023/08/06 04:29:53;;;;;;;6.15;3.65;;;;;;;20.49;74.37;97653.97;4484020;32;33520;-89
2023/08/06 04:32:21;;;;;;;6.40;4.32;;;;;;;19.89;76.69;97649.94;4496671;31;34717;-89
2023/08/06 04:34:50;;;;;;;6.28;3.65;;;;;;;19.95;76.38;97648.78;4490650;31;33930;-94
2023/08/06 04:37:18;;;;;;;6.12;4.25;;;;;;;19.92;76.18;97649.78;4492173;31;33389;-91
2023/08/06 04:39:46;;;;;;;7.47;4.43;;;;;;;19.98;75.50;97640.75;4499520;31;34270;-91
2023/08/06 04:42:13;;;;;;;5.72;3.50;;;;;;;19.99;75.98;97644.22;4474819;31;34652;-90
2023/08/06 04:44:41;;;;;;;6.05;3.65;;;;;;;20.02;74.87;97633.56;4468660;32;34556;-90
2023/08/06 04:47:11;;;;;;;5.72;2.90;;;;;;;19.80;76.08;97637.25;4468586;32;33688;-89
2023/08/06 04:49:39;;;;;;;6.53;2.15;;;;;;;19.75;75.71;97641.03;4492723;31;33464;-90
2023/08/06 04:52:06;;;;;;;4.62;1.70;;;;;;;19.69;75.63;97639.53;4499924;31;33948;-91
2023/08/06 04:54:34;;;;;;;4.95;1.67;;;;;;;19.41;76.88;97632.94;4499432;31;33978;-92
2023/08/06 04:57:01;;;;;;;3.97;1.08;;;;;;;19.74;75.43;97634.06;4499810;31;34373;-92
2023/08/06 04:59:29;;;;;;;3.90;0.90;;;;;;;19.56;76.18;97635.78;4488842;31;33401;-87
2023/08/06 05:01:56;;;;;;;3.25;1.23;;;;;;;19.45;76.56;97629.25;4483636;32;34682;-89
2023/08/06 05:04:24;;;;;;;4.07;0.98;;;;;;;19.31;77.20;97629.03;4484739;31;34901;-88
2023/08/06 05:06:51;;;;;;;2.80;1.10;;;;;;;19.52;76.70;97626.34;4483854;32;33577;-87
2023/08/06 05:09:19;;;;;;;1.75;0.47;;;;;;;19.32;77.18;97636.03;4492663;31;33250;-89
2023/08/06 05:11:47;;;;;;;1.52;0.50;;;;;;;19.15;77.71;97626.28;4497438;31;33919;-91
2023/08/06 05:14:15;;;;;;;5.43;0.60;;;;;;;19.26;77.40;97628.41;4487049;31;34123;-88
2023/08/06 05:16:43;;;;;;;0.70;0.43;;;;;;;19.26;77.40;97620.53;4483743;32;33686;-88
2023/08/06 05:19:10;;;;;;;1.10;0.40;;;;;;;19.58;76.24;97612.88;4483838;32;33205;-93
2023/08/06 05:21:38;;;;;;;1.80;0.32;;;;;;;19.55;75.99;97615.69;4488807;31;34209;-88
2023/08/06 05:24:06;;;;;;;0.20;0.20;;;;;;;19.11;77.31;97618.62;4483689;32;34926;-93
2023/08/06 05:26:33;;;;;;;2.58;0.20;;;;;;;19.53;75.72;97620.16;4482230;32;34006;-89
2023/08/06 05:29:01;;;;;;;0.50;0.20;;;;;;;19.63;75.48;97614.41;4483906;32;33297;-94
2023/08/06 05:31:28;;;;;;;0.37;0.10;;;;;;;19.08;78.01;97624.84;4483727;31;33703;-88
2023/08/06 05:33:56;;;;;;;0.13;0.10;;;;;;;19.26;76.37;97617.91;4485280;31;34646;-90
2023/08/06 05:36:23;;;;;;;1.10;0.15;;;;;;;19.42;75.52;97611.00;4484970;31;34563;-89
2023/08/06 05:38:52;;;;;;;0.35;0.17;;;;;;;19.14;77.00;97618.47;4485046;31;33038;-89
2023/08/06 05:41:20;;;;;;;0.45;0.10;;;;;;;19.37;74.63;97615.63;4483725;31;33806;-89
2023/08/06 05:43:47;;;;;;;1.25;0.20;;;;;;;19.41;74.88;97626.84;4483574;32;34296;-89
2023/08/06 05:46:15;;;;;;;0.55;0.20;;;;;;;19.11;75.78;97614.22;4486624;31;33601;-90
2023/08/06 05:48:42;;;;;;;2.22;0.20;;;;;;;18.65;77.43;97621.53;4485108;31;32959;-89
2023/08/06 05:51:12;;;;;;;0.22;0.20;;;;;;;19.31;74.52;97609.78;4483442;32;33843;-89
2023/08/06 05:53:41;;;;;;;0.60;0.20;;;;;;;19.20;74.60;97619.03;4483688;32;34984;-89
2023/08/06 05:56:08;;;;;;;0.80;0.30;;;;;;;18.66;76.98;97611.88;4483540;32;34513;-88
2023/08/06 05:58:36;;;;;;;1.33;0.30;;;;;;;19.02;75.83;97608.56;4483464;31;33314;-89
2023/08/06 06:01:03;;;;;;;2.53;0.40;;;;;;;19.06;75.54;97602.22;4483831;32;33406;-89
2023/08/06 06:03:31;;;;;;;0.98;0.37;;;;;;;19.17;74.57;97600.81;4484093;31;34439;-89
2023/08/06 06:06:01;;;;;;;3.00;0.30;;;;;;;19.19;73.79;97595.47;4483181;32;34702;-94
2023/08/06 06:08:28;;;;;;;0.43;0.30;;;;;;;18.93;75.06;97581.75;4487732;31;32961;-96
2023/08/06 06:10:56;;;;;;;0.80;0.50;;;;;;;18.52;77.51;97588.00;4495813;31;32461;-89
2023/08/06 06:13:23;;;;;;;1.00;0.60;;;;;;;18.67;77.47;97582.06;4487027;31;34095;-89
2023/08/06 06:15:54;;;;;;;1.05;0.60;;;;;;;18.23;79.47;97600.66;4483323;32;34588;-87
2023/08/06 06:18:22;;;;;;;2.40;0.70;;;;;;;18.21;79.37;97594.59;4486342;31;34027;-92
2023/08/06 06:20:50;;;;;;;1.98;0.60;;;;;;;17.92;80.40;97599.31;4497658;31;33579;-88
2023/08/06 06:23:17;;;;;;;1.92;0.70;;;;;;;18.24;79.36;97590.06;4497386;31;34595;-93
2023/08/06 06:25:51;;;;;;;2.20;0.50;;;;;;;18.27;79.27;97594.34;4485205;31;33764;-88
2023/08/06 06:28:19;;;;;;;3.35;0.60;;;;;;;18.27;79.16;97602.22;4483650;31;33325;-91
2023/08/06 06:30:47;;;;;;;2.70;0.75;;;;;;;18.28;79.92;97603.91;4473728;31;33813;-88
2023/08/06 06:33:15;;;;;;;0.80;0.50;;;;;;;18.42;78.90;97617.28;4483245;32;35024;-90
2023/08/06 06:35:43;;;;;;;1.42;0.60;;;;;;;18.39;78.87;97620.03;4482732;31;34086;-88
2023/08/06 06:38:10;;;;;;;1.98;0.88;;;;;;;18.54;78.16;97626.41;4482081;32;34202;-88
2023/08/06 06:40:38;;;;;;;2.22;0.60;;;;;;;18.51;78.58;97626.53;4483291;32;33349;-87
2023/08/06 06:43:05;;;;;;;2.30;0.60;;;;;;;18.25;78.88;97627.66;4483080;32;34934;-86
2023/08/06 06:45:33;;;;;;;1.83;0.60;;;;;;;18.31;79.12;97614.28;4486837;31;34107;-92
2023/08/06 06:48:01;;;;;;;1.17;0.52;;;;;;;18.86;76.86;97619.72;4499008;31;33465;-88
2023/08/06 06:50:29;;;;;;;0.30;0.30;;;;;;;18.70;76.15;97624.81;4498915;31;33562;-89
2023/08/06 06:52:57;;;;;;;1.83;0.50;;;;;;;18.57;77.63;97628.03;4498932;31;33712;-87
2023/08/06 06:55:25;;;;;;;1.73;0.47;;;;;;;18.57;78.49;97628.03;4495493;31;34643;-85
2023/08/06 06:57:52;;;;;;;0.52;0.30;;;;;;;18.27;79.33;97625.81;4482947;32;34207;-85
2023/08/06 07:00:20;;;;;;;0.75;0.45;;;;;;;18.47;78.64;97622.34;4478186;32;34073;-91
2023/08/06 07:02:48;;;;;;;1.40;0.50;;;;;;;18.49;77.80;97620.50;4467115;32;34820;-88
2023/08/06 07:05:15;;;;;;;0.75;0.30;;;;;;;18.69;76.94;97617.00;4469070;31;34272;-86
2023/08/06 07:07:43;;;;;;;1.27;0.30;;;;;;;18.78;75.99;97619.22;4482984;32;33565;-87
2023/08/06 07:10:11;;;;;;;1.33;0.30;;;;;;;18.61;76.77;97616.50;4482755;32;33447;-86
2023/08/06 07:12:38;;;;;;;1.23;0.37;;;;;;;18.78;76.53;97611.34;4482891;32;35037;-87
2023/08/06 07:15:06;;;;;;;1.08;0.35;;;;;;;18.39;78.03;97619.19;4483099;31;34187;-86
2023/08/06 07:17:34;;;;;;;1.83;0.20;;;;;;;18.44;77.96;97619.84;4497258;31;33462;-87
2023/08/06 07:20:01;;;;;;;0.32;0.20;;;;;;;18.76;76.59;97622.87;4498325;31;33779;-87
2023/08/06 07:22:29;;;;;;;1.75;0.30;;;;;;;18.71;76.29;97629.19;4498636;31;34153;-89
2023/08/06 07:24:57;;;;;;;0.50;0.20;;;;;;;18.66;76.27;97635.50;4498427;31;34476;-87
2023/08/06 07:27:25;;;;;;;0.62;0.30;;;;;;;18.39;77.87;97638.41;4482946;31;34166;-88
2023/08/06 07:29:52;;;;;;;0.95;0.30;;;;;;;18.59;77.19;97647.19;4481284;32;35078;-87
2023/08/06 07:32:20;;;;;;;0.28;0.28;;;;;;;18.76;76.38;97647.34;4482620;32;33627;-88
2023/08/06 07:34:47;;;;;;;1.48;0.30;;;;;;;18.70;76.68;97635.31;4482864;31;32100;-86
2023/08/06 07:37:15;;;;;;;0.40;0.20;;;;;;;18.62;77.07;97626.06;4482944;32;33051;-88
2023/08/06 07:39:42;;;;;;;1.77;0.30;;;;;;;18.57;76.98;97634.12;4482473;32;34130;-88
2023/08/06 07:42:10;;;;;;;1.92;0.40;;;;;;;18.61;77.26;97635.72;4482531;32;34841;-88
2023/08/06 07:44:38;;;;;;;0.93;0.30;;;;;;;18.80;77.06;97646.28;4496400;31;34474;-87
2023/08/06 07:47:07;;;;;;;0.95;0.40;;;;;;;19.06;76.35;97652.13;4481769;31;34352;-89
2023/08/06 07:49:35;;;;;;;1.05;0.40;;;;;;;19.19;74.71;97648.00;4480543;32;33779;-91
2023/08/06 07:52:02;;;;;;;0.55;0.30;;;;;;;18.93;75.02;97644.78;4482579;32;34118;-91
2023/08/06 07:54:30;;;;;;;2.55;0.35;;;;;;;19.15;74.17;97644.66;4494537;31;34083;-88
2023/08/06 07:56:57;;;;;;;1.30;0.40;;;;;;;18.94;75.81;97646.53;4498202;31;34379;-89
2023/08/06 07:59:25;;;;;;;0.30;0.30;;;;;;;18.99;75.22;97646.31;4490909;31;34004;-88
2023/08/06 08:01:53;;;;;;;0.20;0.20;;;;;;;18.88;75.49;97633.66;4491639;31;33336;-91
2023/08/06 08:04:21;;;;;;;0.68;0.30;;;;;;;18.82;75.84;97638.31;4491638;31;33980;-88
2023/08/06 08:06:49;;;;;;;0.35;0.28;;;;;;;18.37;77.04;97628.88;4498499;31;33346;-89
2023/08/06 08:09:16;;;;;;;0.90;0.30;;;;;;;18.48;76.25;97624.03;4483907;31;33795;-91
2023/08/06 08:11:45;;;;;;;1.02;0.30;;;;;;;18.43;77.51;97620.75;4497916;31;33939;-89
2023/08/06 08:14:13;;;;;;;1.20;0.40;;;;;;;18.50;77.48;97611.72;4488763;31;33670;-87
2023/08/06 08:16:40;;;;;;;0.62;0.40;;;;;;;18.70;76.22;97618.69;4487588;31;34216;-90
2023/08/06 08:19:08;;;;;;;1.58;0.30;;;;;;;18.81;76.11;97611.22;4482308;32;33898;-89
2023/08/06 08:21:36;;;;;;;1.30;0.30;;;;;;;18.71;75.50;97633.53;4482091;32;34938;-87
2023/08/06 08:24:04;;;;;;;1.52;0.40;;;;;;;18.63;75.82;97638.25;4479312;31;33179;-89
2023/08/06 08:26:31;;;;;;;0.82;0.40;;;;;;;18.25;78.30;97651.25;4475890;32;33267;-89
2023/08/06 08:28:59;;;;;;;1.05;0.52;;;;;;;18.51;76.95;97657.16;4482164;32;33741;-88
2023/08/06 08:31:28;;;;;;;0.95;0.47;;;;;;;18.54;76.73;97655.25;4481581;32;33896;-89
2023/08/06 08:33:56;;;;;;;0.88;0.43;;;;;;;18.30;77.14;97657.19;4488285;31;34922;-89
2023/08/06 08:36:26;;;;;;;1.05;0.50;;;;;;;18.68;76.04;97652.91;4490267;31;33389;-87
2023/08/06 08:38:54;;;;;;;0.93;0.60;;;;;;;18.22;77.00;97652.25;4480330;32;31920;-86
2023/08/06 08:41:21;;;;;;;1.08;0.40;;;;;;;18.18;77.93;97644.56;4482039;31;34175;-88
2023/08/06 08:43:51;;;;;;;1.85;0.50;;;;;;;18.48;76.59;97640.63;4481399;32;34517;-85
2023/08/06 08:46:19;;;;;;;1.85;0.50;;;;;;;17.96;78.99;97642.84;4481362;32;33299;-87
2023/08/06 08:48:47;;;;;;;2.75;0.52;;;;;;;18.61;75.80;97637.47;4481562;32;33930;-87
2023/08/06 08:51:15;;;;;;;1.50;0.70;;;;;;;17.90;78.52;97637.00;4481062;31;35004;-87
2023/08/06 08:53:44;;;;;;;1.05;0.57;;;;;;;18.19;78.55;97639.28;4497182;31;33788;-83
2023/08/06 08:56:13;;;;;;;1.98;0.90;;;;;;;18.33;78.19;97629.94;4496843;31;34228;-86
2023/08/06 08:58:41;;;;;;;1.48;0.85;;;;;;;18.44;77.49;97623.31;4496920;31;33509;-90
2023/08/06 09:01:09;;;;;;;1.58;1.00;;;;;;;18.24;77.32;97641.69;4496184;31;34985;-89
2023/08/06 09:03:37;;;;;;;1.20;0.77;;;;;;;18.74;74.25;97646.53;4478437;31;33961;-86
2023/08/06 09:06:05;;;;;;;1.48;0.98;;;;;;;18.40;76.86;97668.97;4468118;32;33467;-89
2023/08/06 09:08:37;;;;;;;2.15;1.23;;;;;;;18.62;74.90;97653.16;4491882;31;33981;-86
2023/08/06 09:11:09;;;;;;;2.25;0.98;;;;;;;18.27;76.00;97672.19;4489013;31;34105;-88
2023/08/06 09:13:37;;;;;;;2.40;0.93;;;;;;;18.17;76.64;97676.97;4490045;31;33392;-91
2023/08/06 09:16:04;;;;;;;4.00;1.10;;;;;;;18.54;75.04;97685.91;4480873;31;33398;-87
2023/08/06 09:18:32;;;;;;;1.20;0.80;;;;;;;18.89;73.47;97681.75;4499493;31;34796;-89
2023/08/06 09:21:00;;;;;;;1.05;0.75;;;;;;;18.37;74.61;97678.75;4497452;31;33847;-89
2023/08/06 09:23:33;;;;;;;2.47;0.90;;;;;;;18.32;75.03;97663.19;4483549;31;33607;-85
2023/08/06 09:26:01;;;;;;;1.55;1.00;;;;;;;18.53;75.21;97657.97;4483515;32;33392;-87
2023/08/06 09:28:39;;;;;;;2.15;1.00;;;;;;;18.43;75.00;97666.22;4491642;31;33924;-87
2023/08/06 09:31:08;;;;;;;3.45;0.90;;;;;;;18.42;75.02;97663.66;4486063;31;34933;-88
2023/08/06 09:33:37;;;;;;;2.15;0.88;;;;;;;18.70;74.12;97660.69;4485412;31;33707;-88
2023/08/06 09:36:09;;;;;;;2.50;0.90;;;;;;;18.32;74.96;97665.81;4476866;31;35925;-86
2023/08/06 09:38:39;;;;;;;2.08;0.90;;;;;;;18.32;75.41;97670.22;4480367;32;34773;-87
2023/08/06 09:41:08;;;;;;;1.23;0.73;;;;;;;18.39;75.68;97669.91;4481435;32;34127;-88
2023/08/06 09:43:43;;;;;;;1.17;0.60;;;;;;;18.58;74.47;97656.84;4482170;32;34683;-89
2023/08/06 09:46:13;;;;;;;1.00;0.50;;;;;;;18.87;73.69;97652.97;4481996;32;33965;-88
2023/08/06 09:48:41;;;;;;;14.00;1.50;;;;;;;19.01;73.73;97649.69;4483522;32;33731;-86
2023/08/06 09:51:13;;;;;;;3.60;0.80;;;;;;;18.80;73.48;97648.91;4483228;32;35107;-82
2023/08/06 09:53:41;;;;;;;0.95;0.60;;;;;;;19.19;71.83;97642.75;4483484;32;33146;-86
2023/08/06 09:56:09;;;;;;;1.80;0.60;;;;;;;18.91;73.35;97637.94;4482258;32;34138;-88
2023/08/06 09:58:38;;;;;;;0.95;0.60;;;;;;;19.38;70.58;97653.25;4483060;32;33721;-84
2023/08/06 10:01:06;;;;;;;0.80;0.57;;;;;;;19.34;71.48;97656.97;4483522;32;33958;-79
2023/08/06 10:03:34;;;;;;;2.42;0.60;;;;;;;19.36;71.05;97666.47;4483645;32;34044;-84
2023/08/06 10:06:06;;;;;;;1.17;0.50;;;;;;;18.85;71.57;97677.56;4481693;32;33407;-84
2023/08/06 10:08:33;;;;;;;1.30;0.50;;;;;;;18.97;71.56;97677.03;4481639;32;32992;-84
2023/08/06 10:11:03;;;;;;;1.10;0.40;;;;;;;19.17;70.65;97678.78;4481996;32;33606;-85
2023/08/06 10:13:32;;;;;;;0.62;0.40;;;;;;;19.29;70.04;97688.72;4481656;32;34381;-86
2023/08/06 10:16:01;;;;;;;1.17;0.55;;;;;;;19.43;70.84;97690.69;4477086;31;33624;-87
2023/08/06 10:18:33;;;;;;;1.55;0.43;;;;;;;19.55;69.50;97690.13;4489695;31;34029;-84
2023/08/06 10:21:01;;;;;;;1.80;0.50;;;;;;;19.82;68.82;97690.63;4486699;31;34170;-87
2023/08/06 10:23:38;;;;;;;0.70;0.40;;;;;;;20.13;68.12;97702.28;4483466;32;33897;-84
2023/08/06 10:26:06;;;;;;;1.10;0.50;;;;;;;20.12;67.80;97698.81;4489635;31;33410;-84
2023/08/06 10:28:38;;;;;;;1.75;0.60;;;;;;;19.64;67.44;97708.13;4498991;31;34171;-86
2023/08/06 10:31:06;;;;;;;1.30;0.40;;;;;;;19.08;68.23;97708.06;4487133;31;34898;-84
2023/08/06 10:33:44;;;;;;;2.97;0.77;;;;;;;19.17;67.81;97716.41;4483008;32;33413;-85
2023/08/06 10:36:12;;;;;;;3.75;0.80;;;;;;;19.56;67.96;97704.13;4483109;32;34354;-83
2023/08/06 10:38:49;;;;;;;0.95;0.60;;;;;;;19.08;68.56;97719.41;4482620;32;34067;-83
2023/08/06 10:41:28;;;;;;;2.33;0.60;;;;;;;19.22;68.91;97729.31;4482968;32;35164;-85
2023/08/06 10:44:13;;;;;;;2.10;0.80;;;;;;;19.54;68.65;97730.47;4482196;32;34037;-85
2023/08/06 10:46:41;;;;;;;1.95;0.55;;;;;;;19.74;66.95;97732.22;4481227;32;32616;-85
2023/08/06 10:49:10;;;;;;;2.12;0.90;;;;;;;19.70;67.61;97728.03;4483002;32;34603;-87
2023/08/06 10:51:38;;;;;;;2.72;0.85;;;;;;;20.05;66.19;97731.59;4483133;32;34183;-86
2023/08/06 10:54:05;;;;;;;2.03;1.08;;;;;;;19.91;66.83;97727.00;4481830;32;34769;-82
2023/08/06 10:56:40;;;;;;;1.83;0.93;;;;;;;19.64;68.05;97723.03;4483015;32;33217;-86
2023/08/06 10:59:10;;;;;;;4.32;1.08;;;;;;;19.42;68.83;97724.00;4481408;32;33586;-86
2023/08/06 11:01:38;;;;;;;1.95;0.90;;;;;;;19.86;68.58;97728.16;4463253;32;34712;-87
2023/08/06 11:04:07;;;;;;;2.65;0.80;;;;;;;19.87;68.88;97741.22;4483387;32;33565;-88
2023/08/06 11:06:35;;;;;;;3.65;0.80;;;;;;;19.79;67.46;97734.63;4483301;32;32943;-90
2023/08/06 11:09:02;;;;;;;2.30;0.90;;;;;;;19.45;67.99;97744.87;4483190;32;33910;-88
2023/08/06 11:11:30;;;;;;;3.72;1.20;;;;;;;19.48;69.42;97751.78;4482910;32;33859;-86
2023/08/06 11:13:58;;;;;;;2.35;0.90;;;;;;;19.45;69.93;97751.94;4482775;32;33742;-86
2023/08/06 11:16:26;;;;;;;1.40;0.80;;;;;;;19.07;71.11;97753.66;4482068;32;33329;-88
2023/08/06 11:18:56;;;;;;;2.42;0.90;;;;;;;19.06;70.69;97749.31;4483170;32;33633;-87
2023/08/06 11:21:25;;;;;;;2.35;0.95;;;;;;;18.81;71.95;97757.41;4483062;32;34000;-87
2023/08/06 11:23:53;;;;;;;1.70;0.80;;;;;;;18.72;71.99;97742.91;4480958;32;33460;-88
2023/08/06 11:26:22;;;;;;;2.15;1.00;;;;;;;18.94;72.68;97754.19;4482864;32;33732;-87
2023/08/06 11:28:50;;;;;;;1.75;0.90;;;;;;;18.85;71.51;97744.06;4467871;32;34049;-89
2023/08/06 11:31:20;;;;;;;4.68;0.88;;;;;;;18.96;71.26;97743.59;4468876;32;33965;-87
2023/08/06 11:33:50;;;;;;;1.83;0.90;;;;;;;18.94;70.83;97743.69;4481565;32;34552;-88
2023/08/06 11:36:31;;;;;;;2.65;0.93;;;;;;;18.85;71.07;97753.72;4482444;32;33372;-88